Time;durP1;ratioP1;P1;durP2;ratioP2;P2;SDS_P1;SDS_P2;PMS_P1;PMS_P2;Temp;Humidity;BMP_temperature;BMP_pressure;BME280_temperature;BME280_humidity;BME280_pressure;Samples;Min_cycle;Max_cycle;Signal;HPM_P1;HPM_P2
2022/12/29 00:01:35;;;;;;;5.95;2.83;;;;;;;;;;6105320;19;20034;-70
2022/12/29 00:03:40;;;;;;;8.40;4.47;;;;;;;;;;6105229;19;20445;-70
2022/12/29 00:05:47;;;;;;;6.88;3.20;;;;;;;;;;6104758;19;20046;-70
2022/12/29 00:07:52;;;;;;;5.32;2.72;;;;;;;;;;6105845;19;20018;-70
2022/12/29 00:09:57;;;;;;;4.80;3.10;;;;;;;;;;6102967;19;20074;-70
2022/12/29 00:12:03;;;;;;;5.28;2.80;;;;;;;;;;6105018;19;20042;-70
2022/12/29 00:16:30;;;;;;;5.00;2.40;;;;;;;;;;6104312;19;20663;-70
2022/12/29 00:18:35;;;;;;;5.07;2.88;;;;;;;;;;6103227;19;20436;-73
2022/12/29 00:36:47;;;;;;;3.75;2.25;;;;;;;;;;6104253;19;20007;-70
2022/12/29 00:45:48;;;;;;;3.85;2.10;;;;;;;;;;6102200;19;20022;-71
2022/12/29 00:47:52;;;;;;;4.57;2.40;;;;;;;;;;6102375;19;20018;-72
2022/12/29 00:49:55;;;;;;;5.32;2.03;;;;;;;;;;6105198;19;20471;-70
2022/12/29 00:52:02;;;;;;;3.65;2.33;;;;;;;;;;6103187;19;20190;-70
2022/12/29 00:54:10;;;;;;;4.80;2.28;;;;;;;;;;6099884;19;20018;-70
2022/12/29 00:56:15;;;;;;;3.08;2.00;;;;;;;;;;6105080;19;20577;-74
2022/12/29 00:58:21;;;;;;;3.47;2.33;;;;;;;;;;6104718;19;20025;-74
2022/12/29 01:00:26;;;;;;;4.10;2.13;;;;;;;;;;6102035;19;20015;-74
2022/12/29 01:02:31;;;;;;;4.22;2.17;;;;;;;;;;6102414;19;20086;-74
2022/12/29 01:04:37;;;;;;;5.20;2.13;;;;;;;;;;6103814;19;20033;-74
2022/12/29 01:06:43;;;;;;;3.72;2.00;;;;;;;;;;6103023;19;20135;-70
2022/12/29 01:10:09;;;;;;;5.22;2.55;;;;;;;;;;6103206;19;20531;-70
2022/12/29 01:11:13;;;;;;;5.22;2.25;;;;;;;;;;6097726;19;20056;-70
2022/12/29 01:13:18;;;;;;;5.63;2.10;;;;;;;;;;6100259;19;20021;-74
2022/12/29 01:15:22;;;;;;;7.00;2.60;;;;;;;;;;6101668;19;20034;-70
2022/12/29 01:17:27;;;;;;;4.75;2.85;;;;;;;;;;6101930;19;20346;-70
2022/12/29 01:19:33;;;;;;;5.40;3.28;;;;;;;;;;6103781;19;20019;-70
2022/12/29 01:21:38;;;;;;;4.22;2.40;;;;;;;;;;6100108;19;20015;-70
2022/12/29 01:23:43;;;;;;;4.93;2.80;;;;;;;;;;6103501;19;20459;-69
2022/12/29 01:25:47;;;;;;;7.95;2.70;;;;;;;;;;6101613;19;20014;-69
2022/12/29 01:27:55;;;;;;;5.55;2.90;;;;;;;;;;6100611;19;20035;-70
2022/12/29 01:30:00;;;;;;;4.93;3.10;;;;;;;;;;6100160;19;20047;-70
2022/12/29 01:32:05;;;;;;;5.57;3.00;;;;;;;;;;6101955;19;20010;-70
2022/12/29 01:34:12;;;;;;;6.85;3.25;;;;;;;;;;6101289;19;20011;-69
2022/12/29 01:36:20;;;;;;;7.53;3.10;;;;;;;;;;6101466;19;20240;-69
2022/12/29 01:38:28;;;;;;;5.90;3.42;;;;;;;;;;6100478;19;20015;-71
2022/12/29 01:40:33;;;;;;;6.10;3.25;;;;;;;;;;6101983;19;20011;-69
2022/12/29 01:42:38;;;;;;;6.03;2.97;;;;;;;;;;6100052;19;20429;-70
2022/12/29 01:44:57;;;;;;;6.90;2.90;;;;;;;;;;6099041;19;20023;-72
2022/12/29 01:47:02;;;;;;;5.15;2.70;;;;;;;;;;6096555;19;20162;-70
2022/12/29 01:49:12;;;;;;;4.72;2.50;;;;;;;;;;6100876;19;20022;-70
2022/12/29 01:51:20;;;;;;;6.15;2.47;;;;;;;;;;6099748;19;20025;-70
2022/12/29 01:53:29;;;;;;;4.15;2.17;;;;;;;;;;6098026;19;20082;-70
2022/12/29 01:55:38;;;;;;;6.13;2.10;;;;;;;;;;6107517;19;20067;-70
2022/12/29 01:57:47;;;;;;;3.53;2.38;;;;;;;;;;6103028;19;20321;-71
2022/12/29 01:59:56;;;;;;;3.47;1.83;;;;;;;;;;6104947;19;20022;-71
2022/12/29 02:02:01;;;;;;;5.53;2.10;;;;;;;;;;6102822;19;20026;-71
2022/12/29 02:04:07;;;;;;;6.10;2.20;;;;;;;;;;6106471;19;20010;-71
2022/12/29 02:06:15;;;;;;;5.55;2.20;;;;;;;;;;6106517;19;20363;-70
2022/12/29 02:08:22;;;;;;;5.30;1.70;;;;;;;;;;6105148;19;20133;-70
2022/12/29 02:10:28;;;;;;;5.38;1.92;;;;;;;;;;6105874;19;20014;-70
2022/12/29 02:12:33;;;;;;;4.18;1.80;;;;;;;;;;6105500;19;20017;-71
2022/12/29 02:14:41;;;;;;;10.43;1.90;;;;;;;;;;6103157;19;20070;-70
2022/12/29 02:17:00;;;;;;;5.10;1.98;;;;;;;;;;6104753;19;20038;-70
2022/12/29 02:19:23;;;;;;;4.32;1.90;;;;;;;;;;6077162;19;20010;-70
2022/12/29 02:21:51;;;;;;;7.40;2.67;;;;;;;;;;6105787;19;20007;-71
2022/12/29 02:24:22;;;;;;;5.22;2.17;;;;;;;;;;6104037;19;20514;-71
2022/12/29 02:26:42;;;;;;;7.35;2.33;;;;;;;;;;6106001;19;20021;-71
2022/12/29 02:29:20;;;;;;;2.60;1.17;;;;;;;;;;6105527;19;20050;-71
2022/12/29 02:31:32;;;;;;;7.85;1.80;;;;;;;;;;6101056;19;20121;-71
2022/12/29 02:33:46;;;;;;;2.22;1.42;;;;;;;;;;6108474;19;20015;-70
2022/12/29 02:35:56;;;;;;;19.10;3.90;;;;;;;;;;6106788;19;20355;-71
2022/12/29 02:38:06;;;;;;;7.72;2.65;;;;;;;;;;6107232;19;20022;-69
2022/12/29 02:40:19;;;;;;;3.72;1.80;;;;;;;;;;6107310;19;20010;-70
2022/12/29 02:42:27;;;;;;;9.32;1.80;;;;;;;;;;6107839;19;20021;-69
2022/12/29 02:44:37;;;;;;;10.07;2.25;;;;;;;;;;6106307;19;20029;-70
2022/12/29 02:46:50;;;;;;;9.60;2.88;;;;;;;;;;6106880;19;20022;-72
2022/12/29 02:48:58;;;;;;;6.53;1.85;;;;;;;;;;6104482;19;20019;-69
2022/12/29 02:51:06;;;;;;;9.20;1.80;;;;;;;;;;6108968;19;21065;-70
2022/12/29 02:53:17;;;;;;;12.00;2.30;;;;;;;;;;6103421;19;20021;-70
2022/12/29 02:55:41;;;;;;;7.22;2.00;;;;;;;;;;6107109;19;20479;-71
2022/12/29 02:57:45;;;;;;;5.78;2.38;;;;;;;;;;6102917;19;20486;-70
2022/12/29 02:59:52;;;;;;;8.50;2.17;;;;;;;;;;6104267;19;20007;-70
2022/12/29 03:02:21;;;;;;;5.47;1.80;;;;;;;;;;6104069;19;20039;-70
2022/12/29 03:04:36;;;;;;;9.13;2.10;;;;;;;;;;6105510;19;20070;-70
2022/12/29 03:06:54;;;;;;;7.18;1.95;;;;;;;;;;6102404;19;20078;-70
2022/12/29 03:09:05;;;;;;;7.15;1.83;;;;;;;;;;6101667;19;20060;-70
2022/12/29 03:16:07;;;;;;;3.30;1.65;;;;;;;;;;6105317;19;20021;-71
2022/12/29 03:18:18;;;;;;;10.20;2.22;;;;;;;;;;6104519;19;20010;-70
2022/12/29 03:20:27;;;;;;;5.88;1.73;;;;;;;;;;6102017;19;20042;-71
2022/12/29 03:22:32;;;;;;;9.27;2.20;;;;;;;;;;6100636;19;20038;-71
2022/12/29 03:24:40;;;;;;;7.00;2.00;;;;;;;;;;6101291;19;20022;-71
2022/12/29 03:26:46;;;;;;;9.45;2.05;;;;;;;;;;6103889;19;20014;-69
2022/12/29 03:28:56;;;;;;;10.13;2.65;;;;;;;;;;6103688;19;20017;-71
2022/12/29 03:31:01;;;;;;;4.78;1.60;;;;;;;;;;6100599;19;20046;-70
2022/12/29 03:33:07;;;;;;;8.32;2.65;;;;;;;;;;6105320;19;20585;-69
2022/12/29 03:35:18;;;;;;;7.30;2.63;;;;;;;;;;6104880;19;20496;-69
2022/12/29 03:37:26;;;;;;;5.70;1.58;;;;;;;;;;6104530;19;20014;-69
2022/12/29 03:39:31;;;;;;;8.48;1.90;;;;;;;;;;6108117;19;20027;-70
2022/12/29 03:41:36;;;;;;;3.65;1.90;;;;;;;;;;6105092;19;20170;-69
2022/12/29 03:43:41;;;;;;;5.75;1.80;;;;;;;;;;6100564;19;20007;-69
2022/12/29 03:45:46;;;;;;;7.05;1.58;;;;;;;;;;6101049;19;20483;-74
2022/12/29 03:47:50;;;;;;;4.40;1.80;;;;;;;;;;6105204;19;20528;-71
2022/12/29 03:49:56;;;;;;;4.60;1.60;;;;;;;;;;6100617;19;20507;-72
2022/12/29 03:52:03;;;;;;;7.07;1.85;;;;;;;;;;6103296;19;20039;-72
2022/12/29 03:54:08;;;;;;;12.57;2.50;;;;;;;;;;6102271;19;20006;-70
2022/12/29 03:56:13;;;;;;;8.07;2.35;;;;;;;;;;6101349;19;20695;-70
2022/12/29 03:58:18;;;;;;;8.88;1.88;;;;;;;;;;6103541;19;20074;-70
2022/12/29 04:00:23;;;;;;;3.30;1.80;;;;;;;;;;6099831;19;20019;-72
2022/12/29 04:02:28;;;;;;;8.07;2.67;;;;;;;;;;6100340;19;20018;-70
2022/12/29 04:04:33;;;;;;;7.55;2.50;;;;;;;;;;6102280;19;20222;-70
2022/12/29 04:06:38;;;;;;;6.32;2.22;;;;;;;;;;6100825;19;20006;-70
2022/12/29 04:08:48;;;;;;;11.50;2.55;;;;;;;;;;6099478;19;20310;-70
2022/12/29 04:10:54;;;;;;;10.90;2.47;;;;;;;;;;6096689;19;20006;-70
2022/12/29 04:12:58;;;;;;;7.13;2.17;;;;;;;;;;6102350;19;20017;-70
2022/12/29 04:15:03;;;;;;;6.85;2.03;;;;;;;;;;6104058;19;20045;-70
2022/12/29 04:17:08;;;;;;;9.80;2.10;;;;;;;;;;6099501;19;20031;-70
2022/12/29 04:19:14;;;;;;;10.73;2.55;;;;;;;;;;6103254;19;20026;-71
2022/12/29 04:21:16;;;;;;;10.40;2.40;;;;;;;;;;6103356;19;20598;-71
2022/12/29 04:23:21;;;;;;;18.25;2.53;;;;;;;;;;6101390;19;20006;-73
2022/12/29 04:25:29;;;;;;;7.38;2.40;;;;;;;;;;6101154;19;20064;-71
2022/12/29 04:27:34;;;;;;;6.38;2.45;;;;;;;;;;6103917;19;20454;-69
2022/12/29 04:29:39;;;;;;;7.30;2.15;;;;;;;;;;6102748;19;20043;-71
2022/12/29 04:31:43;;;;;;;7.13;2.40;;;;;;;;;;6099556;19;20010;-71
2022/12/29 04:33:49;;;;;;;8.18;2.38;;;;;;;;;;6102517;19;20002;-70
2022/12/29 04:35:54;;;;;;;3.78;1.52;;;;;;;;;;6099941;19;20010;-70
2022/12/29 04:37:59;;;;;;;7.05;1.83;;;;;;;;;;6102254;19;20010;-70
2022/12/29 04:40:04;;;;;;;12.32;2.15;;;;;;;;;;6100546;19;20010;-70
2022/12/29 04:42:12;;;;;;;3.83;1.50;;;;;;;;;;6100908;19;21879;-70
2022/12/29 04:44:17;;;;;;;5.07;1.67;;;;;;;;;;6101002;19;20017;-70
2022/12/29 04:46:22;;;;;;;6.72;2.10;;;;;;;;;;6100803;19;20022;-71
2022/12/29 04:48:27;;;;;;;7.05;2.00;;;;;;;;;;6100665;19;20026;-71
2022/12/29 04:50:33;;;;;;;8.88;1.63;;;;;;;;;;6099814;19;20554;-73
2022/12/29 04:52:38;;;;;;;9.77;2.75;;;;;;;;;;6097918;19;20114;-74
2022/12/29 04:54:43;;;;;;;10.13;2.03;;;;;;;;;;6100752;19;20006;-73
2022/12/29 04:56:48;;;;;;;7.80;2.22;;;;;;;;;;6102182;19;20645;-73
2022/12/29 04:58:55;;;;;;;9.65;2.33;;;;;;;;;;6099044;19;20011;-72
2022/12/29 05:01:00;;;;;;;14.35;3.17;;;;;;;;;;6102116;19;20032;-72
2022/12/29 05:03:05;;;;;;;11.57;2.83;;;;;;;;;;6100595;19;20014;-71
2022/12/29 05:05:10;;;;;;;7.05;2.20;;;;;;;;;;6100021;19;20429;-72
2022/12/29 05:07:15;;;;;;;11.15;3.10;;;;;;;;;;6100025;19;20007;-72
2022/12/29 05:09:21;;;;;;;9.68;2.33;;;;;;;;;;6099970;19;20043;-73
2022/12/29 05:11:26;;;;;;;11.23;2.33;;;;;;;;;;6098608;19;20483;-69
2022/12/29 05:13:31;;;;;;;10.93;2.17;;;;;;;;;;6100570;19;20011;-73
2022/12/29 05:15:39;;;;;;;11.65;2.88;;;;;;;;;;6100220;19;21506;-72
2022/12/29 05:17:44;;;;;;;13.50;3.03;;;;;;;;;;6098336;19;20018;-73
2022/12/29 05:19:49;;;;;;;14.35;3.03;;;;;;;;;;6100842;19;20035;-73
2022/12/29 05:21:54;;;;;;;10.40;2.58;;;;;;;;;;6099507;19;20332;-70
2022/12/29 05:23:59;;;;;;;14.18;2.95;;;;;;;;;;6102539;19;20010;-70
2022/12/29 05:26:03;;;;;;;16.58;3.05;;;;;;;;;;6100802;19;20453;-69
2022/12/29 05:28:08;;;;;;;10.02;2.78;;;;;;;;;;6098392;19;20377;-69
2022/12/29 05:30:15;;;;;;;14.38;2.97;;;;;;;;;;6105123;19;20493;-70
2022/12/29 05:32:23;;;;;;;9.18;2.72;;;;;;;;;;6105233;19;20461;-72
2022/12/29 05:34:28;;;;;;;11.52;3.17;;;;;;;;;;6104205;19;20485;-73
2022/12/29 05:36:33;;;;;;;12.93;3.05;;;;;;;;;;6106495;19;20007;-70
2022/12/29 05:38:42;;;;;;;12.25;3.10;;;;;;;;;;6104805;19;20423;-70
2022/12/29 05:40:47;;;;;;;21.10;3.63;;;;;;;;;;6106024;19;20011;-70
2022/12/29 05:42:52;;;;;;;15.95;2.97;;;;;;;;;;6102887;19;20804;-70
2022/12/29 05:44:57;;;;;;;12.52;3.30;;;;;;;;;;6102180;19;20516;-70
2022/12/29 05:47:02;;;;;;;13.38;2.83;;;;;;;;;;6105041;19;20015;-72
2022/12/29 05:49:09;;;;;;;8.88;2.50;;;;;;;;;;6105194;19;20262;-73
2022/12/29 05:51:14;;;;;;;14.27;2.88;;;;;;;;;;6104585;19;20009;-69
2022/12/29 05:53:19;;;;;;;12.65;3.17;;;;;;;;;;6107647;19;20031;-68
2022/12/29 05:55:24;;;;;;;17.38;3.85;;;;;;;;;;6109185;19;20367;-71
2022/12/29 05:57:29;;;;;;;17.15;3.10;;;;;;;;;;6109446;19;20018;-68
2022/12/29 05:59:34;;;;;;;13.93;3.20;;;;;;;;;;6102920;19;20260;-71
2022/12/29 06:01:42;;;;;;;12.35;3.05;;;;;;;;;;6104329;19;20145;-74
2022/12/29 06:03:47;;;;;;;11.48;2.67;;;;;;;;;;6106908;19;20019;-74
2022/12/29 06:05:55;;;;;;;12.35;2.95;;;;;;;;;;6104151;19;20522;-73
2022/12/29 06:08:01;;;;;;;11.07;2.40;;;;;;;;;;6107544;19;20650;-69
2022/12/29 06:10:07;;;;;;;12.05;3.33;;;;;;;;;;6104251;19;20011;-70
2022/12/29 06:12:12;;;;;;;13.93;2.50;;;;;;;;;;6102582;19;20019;-70
2022/12/29 06:14:18;;;;;;;11.55;2.83;;;;;;;;;;6104496;19;20014;-73
2022/12/29 06:16:23;;;;;;;13.90;3.13;;;;;;;;;;6105949;19;20010;-73
2022/12/29 06:18:29;;;;;;;12.93;2.85;;;;;;;;;;6104415;19;20014;-72
2022/12/29 06:20:34;;;;;;;11.80;3.00;;;;;;;;;;6102498;19;20918;-72
2022/12/29 06:22:41;;;;;;;15.82;2.95;;;;;;;;;;6105330;19;20051;-72
2022/12/29 06:24:46;;;;;;;17.92;3.03;;;;;;;;;;6101337;19;20022;-70
2022/12/29 06:26:51;;;;;;;19.48;2.92;;;;;;;;;;6103008;19;20420;-69
2022/12/29 06:28:56;;;;;;;10.55;2.90;;;;;;;;;;6100020;19;20022;-69
2022/12/29 06:31:02;;;;;;;13.35;2.70;;;;;;;;;;6104002;19;20021;-70
2022/12/29 06:33:08;;;;;;;20.17;3.13;;;;;;;;;;6102468;19;20009;-69
2022/12/29 06:35:13;;;;;;;8.82;2.53;;;;;;;;;;6104121;19;20467;-69
2022/12/29 06:37:17;;;;;;;15.45;2.90;;;;;;;;;;6103685;19;20390;-69
2022/12/29 06:39:25;;;;;;;11.45;2.67;;;;;;;;;;6105247;19;20006;-70
2022/12/29 06:41:32;;;;;;;13.32;2.83;;;;;;;;;;6105594;19;20017;-70
2022/12/29 06:43:38;;;;;;;9.93;2.63;;;;;;;;;;6104646;19;20010;-71
2022/12/29 06:45:43;;;;;;;11.15;2.58;;;;;;;;;;6102434;19;20459;-70
2022/12/29 06:47:48;;;;;;;13.15;2.80;;;;;;;;;;6104846;19;20023;-71
2022/12/29 06:49:52;;;;;;;17.05;2.63;;;;;;;;;;6103727;19;20006;-71
2022/12/29 06:51:58;;;;;;;5.57;2.05;;;;;;;;;;6104661;19;20018;-70
2022/12/29 06:54:03;;;;;;;9.23;2.42;;;;;;;;;;6101896;19;20078;-69
2022/12/29 06:56:10;;;;;;;20.75;3.30;;;;;;;;;;6106767;19;20015;-70
2022/12/29 06:58:15;;;;;;;10.23;2.60;;;;;;;;;;6103773;19;20010;-70
2022/12/29 07:00:21;;;;;;;5.25;2.22;;;;;;;;;;6105630;19;20035;-70
2022/12/29 07:02:27;;;;;;;10.52;2.40;;;;;;;;;;6104471;19;20010;-70
2022/12/29 07:04:32;;;;;;;7.60;2.88;;;;;;;;;;6102924;19;20006;-70
2022/12/29 07:06:37;;;;;;;9.10;2.85;;;;;;;;;;6101496;19;20010;-70
2022/12/29 07:08:42;;;;;;;6.55;2.60;;;;;;;;;;6103004;19;20464;-69
2022/12/29 07:10:47;;;;;;;8.63;2.15;;;;;;;;;;6102524;19;20019;-69
2022/12/29 07:12:55;;;;;;;8.55;2.05;;;;;;;;;;6103917;19;20551;-69
2022/12/29 07:15:00;;;;;;;10.35;2.45;;;;;;;;;;6101489;19;20028;-69
2022/12/29 07:17:06;;;;;;;9.65;2.15;;;;;;;;;;6103034;19;20019;-69
2022/12/29 07:19:11;;;;;;;7.40;1.95;;;;;;;;;;6103653;19;20014;-70
2022/12/29 07:21:16;;;;;;;15.98;3.08;;;;;;;;;;6102215;19;20100;-69
2022/12/29 07:23:21;;;;;;;10.00;2.55;;;;;;;;;;6101489;19;20114;-69
2022/12/29 07:25:25;;;;;;;9.60;2.22;;;;;;;;;;6100594;19;20025;-71
2022/12/29 07:27:30;;;;;;;10.05;2.60;;;;;;;;;;6101794;19;20010;-71
2022/12/29 07:29:39;;;;;;;10.68;3.05;;;;;;;;;;6104029;19;20014;-71
2022/12/29 07:31:44;;;;;;;8.80;3.00;;;;;;;;;;6101880;19;20010;-70
2022/12/29 07:33:49;;;;;;;14.43;2.47;;;;;;;;;;6103147;19;20045;-69
2022/12/29 07:35:54;;;;;;;11.63;2.92;;;;;;;;;;6102635;19;20027;-69
2022/12/29 07:37:58;;;;;;;15.15;2.88;;;;;;;;;;6102321;19;20022;-73
2022/12/29 07:40:03;;;;;;;14.30;2.80;;;;;;;;;;6099177;19;20463;-73
2022/12/29 07:42:08;;;;;;;11.98;2.75;;;;;;;;;;6102547;19;20010;-72
2022/12/29 07:44:13;;;;;;;10.82;3.10;;;;;;;;;;6103455;19;20042;-71
2022/12/29 07:46:21;;;;;;;10.57;2.15;;;;;;;;;;6101064;19;20422;-70
2022/12/29 07:48:46;;;;;;;19.30;3.80;;;;;;;;;;6103041;19;20017;-70
2022/12/29 07:50:52;;;;;;;20.27;3.85;;;;;;;;;;6102515;19;20014;-70
2022/12/29 07:52:57;;;;;;;12.18;2.60;;;;;;;;;;6093723;19;20523;-72
2022/12/29 07:55:02;;;;;;;13.20;2.75;;;;;;;;;;6101643;19;20600;-72
2022/12/29 07:57:07;;;;;;;13.85;3.65;;;;;;;;;;6098926;19;20436;-72
2022/12/29 07:59:12;;;;;;;11.50;2.70;;;;;;;;;;6102509;19;20621;-73
2022/12/29 08:01:17;;;;;;;12.68;2.42;;;;;;;;;;6103410;19;20687;-73
2022/12/29 08:03:27;;;;;;;13.40;2.30;;;;;;;;;;6100554;19;20459;-73
2022/12/29 08:05:33;;;;;;;11.02;2.38;;;;;;;;;;6099144;19;20014;-70
2022/12/29 08:07:38;;;;;;;13.35;3.60;;;;;;;;;;6098414;19;20019;-70
2022/12/29 08:09:43;;;;;;;16.08;2.45;;;;;;;;;;6098819;19;20010;-70
2022/12/29 08:11:50;;;;;;;16.58;3.33;;;;;;;;;;6100345;19;20046;-69
2022/12/29 08:13:57;;;;;;;10.55;2.40;;;;;;;;;;6100922;19;20014;-69
2022/12/29 08:16:02;;;;;;;13.52;3.05;;;;;;;;;;6073845;19;20101;-70
2022/12/29 08:18:08;;;;;;;9.90;2.35;;;;;;;;;;6099834;19;20082;-69
2022/12/29 08:20:16;;;;;;;12.65;2.92;;;;;;;;;;6099675;19;20074;-72
2022/12/29 08:22:21;;;;;;;13.70;3.10;;;;;;;;;;6095863;19;20018;-72
2022/12/29 08:24:30;;;;;;;9.27;2.80;;;;;;;;;;6102632;19;20002;-72
2022/12/29 08:26:41;;;;;;;8.18;2.33;;;;;;;;;;6102616;19;20064;-72
2022/12/29 08:28:46;;;;;;;13.85;3.50;;;;;;;;;;6103644;19;20013;-73
2022/12/29 08:30:54;;;;;;;15.10;2.65;;;;;;;;;;6102694;19;20032;-73
2022/12/29 08:32:59;;;;;;;15.55;3.08;;;;;;;;;;6096351;19;20527;-72
2022/12/29 08:35:04;;;;;;;8.82;2.63;;;;;;;;;;6102433;19;20708;-72
2022/12/29 08:37:11;;;;;;;16.58;3.50;;;;;;;;;;6101937;19;20022;-71
2022/12/29 08:39:16;;;;;;;16.15;3.35;;;;;;;;;;6101219;19;20467;-72
2022/12/29 08:41:21;;;;;;;12.85;2.95;;;;;;;;;;6102665;19;20017;-71
2022/12/29 08:43:26;;;;;;;10.60;2.53;;;;;;;;;;6105375;19;20037;-72
2022/12/29 08:45:31;;;;;;;15.05;3.63;;;;;;;;;;6100690;19;20031;-73
2022/12/29 08:47:36;;;;;;;17.30;3.47;;;;;;;;;;6102676;19;20028;-69
2022/12/29 08:49:41;;;;;;;14.48;3.17;;;;;;;;;;6100590;19;20010;-70
2022/12/29 08:51:46;;;;;;;14.98;2.88;;;;;;;;;;6100729;19;20003;-69
2022/12/29 08:53:53;;;;;;;11.20;2.97;;;;;;;;;;6098493;19;20007;-70
2022/12/29 08:56:02;;;;;;;11.32;3.00;;;;;;;;;;6100471;19;20364;-73
2022/12/29 08:58:14;;;;;;;12.10;3.10;;;;;;;;;;6102780;19;20553;-73
2022/12/29 09:00:20;;;;;;;6.97;2.30;;;;;;;;;;6102347;19;20010;-73
2022/12/29 09:02:25;;;;;;;17.08;4.43;;;;;;;;;;6100926;19;20047;-73
2022/12/29 09:04:31;;;;;;;16.42;3.17;;;;;;;;;;6107689;19;21531;-73
2022/12/29 09:06:36;;;;;;;15.77;4.00;;;;;;;;;;6107264;19;20021;-74
2022/12/29 09:08:44;;;;;;;19.17;3.75;;;;;;;;;;6105599;19;20045;-74
2022/12/29 09:10:52;;;;;;;12.95;4.40;;;;;;;;;;6102421;19;20014;-74
2022/12/29 09:12:56;;;;;;;14.00;2.97;;;;;;;;;;6080974;19;20070;-73
2022/12/29 09:15:02;;;;;;;12.95;3.72;;;;;;;;;;6107195;19;20070;-73
2022/12/29 09:19:24;;;;;;;9.45;2.53;;;;;;;;;;6108210;19;20038;-73
2022/12/29 09:21:29;;;;;;;14.40;3.42;;;;;;;;;;6106534;19;20006;-73
2022/12/29 09:23:34;;;;;;;10.95;3.30;;;;;;;;;;6105870;19;20027;-70
2022/12/29 09:25:39;;;;;;;9.30;2.75;;;;;;;;;;6107759;19;20007;-70
2022/12/29 09:27:47;;;;;;;13.98;4.05;;;;;;;;;;6088984;19;20007;-70
2022/12/29 09:29:52;;;;;;;11.13;3.33;;;;;;;;;;6109108;19;20006;-70
2022/12/29 09:31:58;;;;;;;13.40;2.97;;;;;;;;;;6103061;19;20292;-70
2022/12/29 09:34:03;;;;;;;16.10;3.88;;;;;;;;;;6107690;19;20021;-70
2022/12/29 09:36:09;;;;;;;7.07;2.63;;;;;;;;;;6109751;19;20011;-73
2022/12/29 09:38:15;;;;;;;12.95;3.17;;;;;;;;;;6102721;19;20006;-73
2022/12/29 09:40:30;;;;;;;17.42;3.70;;;;;;;;;;6108655;19;20019;-70
2022/12/29 09:42:40;;;;;;;17.17;3.90;;;;;;;;;;6107579;19;20018;-69
2022/12/29 09:44:58;;;;;;;12.70;3.08;;;;;;;;;;6108293;19;20007;-70
2022/12/29 09:47:03;;;;;;;17.30;3.75;;;;;;;;;;6105849;19;20031;-72
2022/12/29 09:49:19;;;;;;;18.40;4.97;;;;;;;;;;6108429;19;20349;-70
2022/12/29 09:51:26;;;;;;;11.75;3.85;;;;;;;;;;6106871;19;20007;-70
2022/12/29 09:53:33;;;;;;;10.50;3.00;;;;;;;;;;6100772;19;20017;-70
2022/12/29 09:55:41;;;;;;;21.55;4.78;;;;;;;;;;6107889;19;20006;-70
2022/12/29 09:57:49;;;;;;;11.18;3.60;;;;;;;;;;6107382;19;20054;-72
2022/12/29 10:00:00;;;;;;;17.58;3.53;;;;;;;;;;6105969;19;20019;-71
2022/12/29 10:02:09;;;;;;;14.32;3.50;;;;;;;;;;6103759;19;20021;-71
2022/12/29 10:04:14;;;;;;;14.85;3.90;;;;;;;;;;6107195;19;20006;-70
2022/12/29 10:06:24;;;;;;;30.60;5.63;;;;;;;;;;6104550;19;20019;-70
2022/12/29 10:08:37;;;;;;;19.35;4.20;;;;;;;;;;6104653;19;20658;-70
2022/12/29 10:10:49;;;;;;;19.38;5.00;;;;;;;;;;6103887;19;20014;-70
2022/12/29 10:13:05;;;;;;;22.45;4.82;;;;;;;;;;6098994;19;20006;-69
2022/12/29 10:15:21;;;;;;;14.95;4.75;;;;;;;;;;6101886;19;20022;-71
2022/12/29 10:17:33;;;;;;;21.35;4.70;;;;;;;;;;6103925;19;20033;-71
2022/12/29 10:20:20;;;;;;;13.15;3.65;;;;;;;;;;6098198;19;20018;-71
2022/12/29 10:22:41;;;;;;;27.00;4.03;;;;;;;;;;6100497;19;20048;-71
2022/12/29 10:24:49;;;;;;;22.40;4.80;;;;;;;;;;6100340;19;20414;-71
2022/12/29 10:26:54;;;;;;;18.60;4.15;;;;;;;;;;6099613;19;20046;-70
2022/12/29 10:29:02;;;;;;;20.73;4.75;;;;;;;;;;6098786;19;20034;-71
2022/12/29 10:31:14;;;;;;;18.95;4.25;;;;;;;;;;6100281;19;20051;-72
2022/12/29 10:33:23;;;;;;;26.08;3.88;;;;;;;;;;6099693;19;20598;-70
2022/12/29 10:35:29;;;;;;;25.98;6.15;;;;;;;;;;6097782;19;20027;-69
2022/12/29 10:37:40;;;;;;;16.50;3.75;;;;;;;;;;6099382;19;20011;-69
2022/12/29 10:39:48;;;;;;;29.50;4.95;;;;;;;;;;6100145;19;20132;-70
2022/12/29 10:41:58;;;;;;;26.95;5.30;;;;;;;;;;6099945;19;20011;-70
2022/12/29 10:44:03;;;;;;;24.88;4.55;;;;;;;;;;6102179;19;20007;-71
2022/12/29 10:46:13;;;;;;;24.23;4.32;;;;;;;;;;6098657;19;20010;-72
2022/12/29 10:48:22;;;;;;;25.60;4.43;;;;;;;;;;6100325;19;20013;-71
2022/12/29 10:50:34;;;;;;;20.73;4.70;;;;;;;;;;6100687;19;20039;-72
2022/12/29 10:52:41;;;;;;;13.40;4.57;;;;;;;;;;6097900;19;20010;-72
2022/12/29 10:54:54;;;;;;;20.25;3.67;;;;;;;;;;6101720;19;20331;-70
2022/12/29 10:57:03;;;;;;;21.40;4.05;;;;;;;;;;6098188;19;20101;-69
2022/12/29 10:59:19;;;;;;;21.80;4.28;;;;;;;;;;6101143;19;20512;-71
2022/12/29 11:01:33;;;;;;;27.67;6.00;;;;;;;;;;6101612;19;20331;-71
2022/12/29 11:03:54;;;;;;;21.20;5.55;;;;;;;;;;6081092;19;20014;-69
2022/12/29 11:06:02;;;;;;;13.27;3.25;;;;;;;;;;6100217;19;20014;-69
2022/12/29 11:08:12;;;;;;;23.48;5.43;;;;;;;;;;6101778;19;20090;-69
2022/12/29 11:10:22;;;;;;;22.75;4.72;;;;;;;;;;6102967;19;20464;-70
2022/12/29 11:12:29;;;;;;;17.17;4.35;;;;;;;;;;6103266;19;20021;-69
2022/12/29 11:14:35;;;;;;;25.05;3.72;;;;;;;;;;5940676;19;3118932;-73
2022/12/29 11:16:44;;;;;;;21.17;4.22;;;;;;;;;;6102100;19;20762;-72
2022/12/29 11:18:51;;;;;;;20.55;3.83;;;;;;;;;;6100819;19;20019;-73
2022/12/29 11:20:59;;;;;;;21.38;3.95;;;;;;;;;;6099607;19;20010;-73
2022/12/29 11:23:04;;;;;;;20.63;4.65;;;;;;;;;;6100309;19;20514;-74
2022/12/29 11:25:15;;;;;;;19.23;4.15;;;;;;;;;;6102537;19;20310;-71
2022/12/29 11:27:22;;;;;;;17.75;4.70;;;;;;;;;;6099289;19;20014;-73
2022/12/29 11:29:30;;;;;;;20.65;4.15;;;;;;;;;;6100645;19;20039;-71
2022/12/29 11:31:45;;;;;;;20.63;5.15;;;;;;;;;;6102204;19;20051;-71
2022/12/29 11:33:51;;;;;;;21.25;3.97;;;;;;;;;;6103948;19;20345;-74
2022/12/29 11:36:00;;;;;;;14.27;3.47;;;;;;;;;;6106063;19;20042;-74
2022/12/29 11:38:06;;;;;;;13.50;2.92;;;;;;;;;;6104936;19;20014;-75
2022/12/29 11:40:19;;;;;;;17.15;4.32;;;;;;;;;;6103901;19;20078;-73
2022/12/29 11:42:25;;;;;;;;;;;;;;;;;;6103728;19;20015;-75
2022/12/29 11:44:38;;;;;;;8.77;2.85;;;;;;;;;;6103231;19;19947;-75
2022/12/29 11:46:49;;;;;;;12.80;3.42;;;;;;;;;;6104538;19;20010;-71
2022/12/29 11:48:58;;;;;;;12.95;2.65;;;;;;;;;;6102163;19;20014;-71
2022/12/29 11:51:03;;;;;;;13.68;3.60;;;;;;;;;;6098676;19;20434;-71
2022/12/29 11:53:16;;;;;;;24.02;4.30;;;;;;;;;;6101164;19;20014;-71
2022/12/29 11:55:28;;;;;;;14.77;3.00;;;;;;;;;;6106019;19;20507;-71
2022/12/29 11:57:36;;;;;;;16.88;3.83;;;;;;;;;;6101608;19;20030;-74
2022/12/29 11:59:44;;;;;;;16.20;3.67;;;;;;;;;;6099625;19;20489;-70
2022/12/29 12:01:51;;;;;;;18.08;3.63;;;;;;;;;;6097451;19;20011;-74
2022/12/29 12:04:03;;;;;;;27.38;4.85;;;;;;;;;;6102368;19;20052;-71
2022/12/29 12:06:10;;;;;;;23.30;4.70;;;;;;;;;;6101602;19;20010;-71
2022/12/29 12:08:21;;;;;;;19.35;4.88;;;;;;;;;;6100082;19;20021;-74
2022/12/29 12:10:32;;;;;;;17.17;4.13;;;;;;;;;;6097974;19;20330;-70
2022/12/29 12:12:41;;;;;;;14.77;3.55;;;;;;;;;;6100568;19;20010;-70
2022/12/29 12:14:54;;;;;;;19.38;4.13;;;;;;;;;;6099570;19;20014;-74
2022/12/29 12:17:05;;;;;;;24.35;4.20;;;;;;;;;;6096896;19;20395;-73
2022/12/29 12:19:17;;;;;;;16.63;3.38;;;;;;;;;;6100862;19;20027;-71
2022/12/29 12:21:28;;;;;;;15.40;3.28;;;;;;;;;;6099534;19;20684;-71
2022/12/29 12:23:42;;;;;;;13.70;2.58;;;;;;;;;;6099221;19;20010;-71
2022/12/29 12:25:53;;;;;;;11.48;2.72;;;;;;;;;;6096815;19;20365;-71
2022/12/29 12:28:02;;;;;;;12.48;2.85;;;;;;;;;;6102714;19;20071;-71
2022/12/29 12:30:13;;;;;;;15.40;3.22;;;;;;;;;;6097367;19;21267;-70
2022/12/29 12:32:24;;;;;;;14.50;3.10;;;;;;;;;;6099670;19;20022;-70
2022/12/29 12:34:34;;;;;;;13.98;4.05;;;;;;;;;;6099052;19;20011;-71
2022/12/29 12:37:27;;;;;;;12.40;2.83;;;;;;;;;;6099108;19;20545;-71
2022/12/29 12:39:43;;;;;;;12.40;2.58;;;;;;;;;;6087333;19;20463;-72
2022/12/29 12:41:55;;;;;;;16.50;3.63;;;;;;;;;;6101392;19;20021;-70
2022/12/29 12:44:04;;;;;;;12.52;3.15;;;;;;;;;;6102339;19;20017;-70
2022/12/29 12:46:20;;;;;;;22.42;4.10;;;;;;;;;;6102445;19;20010;-70
2022/12/29 12:48:50;;;;;;;13.32;3.40;;;;;;;;;;6098622;19;20021;-72
2022/12/29 12:50:59;;;;;;;15.77;3.38;;;;;;;;;;6101612;19;20039;-70
2022/12/29 12:53:18;;;;;;;17.95;4.43;;;;;;;;;;6097210;19;20011;-70
2022/12/29 12:55:37;;;;;;;17.52;4.22;;;;;;;;;;6104583;19;20006;-72
2022/12/29 12:57:52;;;;;;;11.20;4.25;;;;;;;;;;6103051;19;20483;-70
2022/12/29 13:00:04;;;;;;;20.52;3.53;;;;;;;;;;6105143;19;20010;-70
2022/12/29 13:02:23;;;;;;;18.33;2.88;;;;;;;;;;6102877;19;20342;-70
2022/12/29 13:04:46;;;;;;;19.85;3.47;;;;;;;;;;6101170;19;20074;-70
2022/12/29 13:06:54;;;;;;;13.82;3.08;;;;;;;;;;6103999;19;20425;-70
2022/12/29 13:09:24;;;;;;;13.00;3.45;;;;;;;;;;6100698;19;20063;-69
2022/12/29 13:11:38;;;;;;;23.50;3.45;;;;;;;;;;6099237;19;20003;-70
2022/12/29 13:13:53;;;;;;;14.20;3.40;;;;;;;;;;6102290;19;20503;-71
2022/12/29 13:16:07;;;;;;;12.18;3.13;;;;;;;;;;6101750;19;20018;-70